createdAt,value
2018-08-12T00:01:54.348Z,12.70
2018-08-12T00:04:58.765Z,12.70
2018-08-12T00:08:03.005Z,12.60
2018-08-12T00:11:07.232Z,12.50
2018-08-12T00:14:11.570Z,12.50
2018-08-12T00:17:16.629Z,12.80
2018-08-12T00:20:22.245Z,12.80
2018-08-12T00:23:26.553Z,12.50
2018-08-12T00:26:30.812Z,12.50
2018-08-12T00:29:35.315Z,12.30
2018-08-12T00:32:39.687Z,12.20
2018-08-12T00:35:43.847Z,12.50
2018-08-12T00:38:48.977Z,12.40
2018-08-12T00:41:53.290Z,12.30
2018-08-12T00:44:57.502Z,12.00
2018-08-12T00:48:01.692Z,11.90
2018-08-12T00:51:06.669Z,12.00
2018-08-12T00:54:11.462Z,12.00
2018-08-12T00:57:15.749Z,12.10
2018-08-12T01:00:22.133Z,12.10
2018-08-12T01:03:26.428Z,12.20
2018-08-12T01:06:30.885Z,11.90
2018-08-12T01:09:35.147Z,12.00
2018-08-12T01:12:39.487Z,12.20
2018-08-12T01:15:44.621Z,12.20
2018-08-12T01:18:48.907Z,12.00
2018-08-12T01:21:53.173Z,11.80
2018-08-12T01:24:57.518Z,11.60
2018-08-12T01:28:01.685Z,11.60
2018-08-12T01:31:06.005Z,11.60
2018-08-12T01:34:10.234Z,11.40
2018-08-12T01:37:14.563Z,11.30
2018-08-12T01:40:20.422Z,11.60
2018-08-12T01:43:24.653Z,11.30
2018-08-12T01:46:29.196Z,11.30
2018-08-12T01:49:33.367Z,11.20
2018-08-12T01:52:37.653Z,11.20
2018-08-12T01:55:42.617Z,11.30
2018-08-12T01:58:46.768Z,11.20
2018-08-12T02:01:50.899Z,10.90
2018-08-12T02:04:55.147Z,11.10
2018-08-12T02:07:59.352Z,11.30
2018-08-12T02:11:03.654Z,11.40
2018-08-12T02:14:08.255Z,11.30
2018-08-12T02:17:12.452Z,11.20
2018-08-12T02:20:17.454Z,11.00
2018-08-12T02:23:21.574Z,10.80
2018-08-12T02:26:26.055Z,10.60
2018-08-12T02:29:30.701Z,10.50
2018-08-12T02:32:35.090Z,10.70
2018-08-12T02:35:39.450Z,10.50
2018-08-12T02:38:43.944Z,10.50
2018-08-12T02:41:48.192Z,10.70
2018-08-12T02:44:52.828Z,10.70
2018-08-12T02:47:57.210Z,10.80
2018-08-12T02:51:01.359Z,10.80
2018-08-12T02:54:05.628Z,10.60
2018-08-12T02:57:16.271Z,10.50
2018-08-12T03:00:20.970Z,10.60
2018-08-12T03:03:25.359Z,10.80
2018-08-12T03:06:29.825Z,10.70
2018-08-12T03:09:34.169Z,10.60
2018-08-12T03:12:38.644Z,10.30
2018-08-12T03:15:43.301Z,10.10
2018-08-12T03:18:53.101Z,10.00
2018-08-12T03:21:57.351Z,10.30
2018-08-12T03:25:01.513Z,10.10
2018-08-12T03:28:05.790Z,10.00
2018-08-12T03:31:09.974Z,10.10
2018-08-12T03:34:14.418Z,10.10
2018-08-12T03:37:19.742Z,10.00
2018-08-12T03:40:24.219Z,10.20
2018-08-12T03:43:28.531Z,10.40
2018-08-12T03:46:32.985Z,10.10
2018-08-12T03:49:37.619Z,10.30
2018-08-12T03:52:42.736Z,10.30
2018-08-12T03:55:47.079Z,10.00
2018-08-12T03:58:51.650Z,10.10
2018-08-12T04:01:55.858Z,10.10
2018-08-12T04:05:00.200Z,10.00
2018-08-12T04:08:04.435Z,9.80
2018-08-12T04:11:08.666Z,9.60
2018-08-12T04:14:12.854Z,9.40
2018-08-12T04:17:18.089Z,9.50
2018-08-12T04:20:22.294Z,9.70
2018-08-12T04:23:26.491Z,9.70
2018-08-12T04:26:30.653Z,9.60
2018-08-12T04:29:34.849Z,9.60
2018-08-12T04:32:39.047Z,9.80
2018-08-12T04:35:43.505Z,10.30
2018-08-12T04:38:47.785Z,10.30
2018-08-12T04:41:53.794Z,10.10
2018-08-12T04:44:58.889Z,9.90
2018-08-12T04:48:03.400Z,9.90
2018-08-12T04:51:07.873Z,10.00
2018-08-12T04:54:12.239Z,10.30
2018-08-12T04:57:16.408Z,10.30
2018-08-12T05:00:20.590Z,10.40
2018-08-12T05:03:25.882Z,10.50
2018-08-12T05:06:30.184Z,10.30
2018-08-12T05:09:34.341Z,10.40
2018-08-12T05:12:38.819Z,10.60
2018-08-12T05:15:42.951Z,10.70
2018-08-12T05:18:47.414Z,10.90
2018-08-12T05:21:52.109Z,11.30
2018-08-12T05:24:57.044Z,11.30
2018-08-12T05:28:01.308Z,11.50
2018-08-12T05:31:05.795Z,11.60
2018-08-12T05:34:10.057Z,11.60
2018-08-12T05:37:14.457Z,11.60
2018-08-12T05:40:18.817Z,11.90
2018-08-12T05:43:23.002Z,11.80
2018-08-12T05:46:27.302Z,12.00
2018-08-12T05:49:31.498Z,12.40
2018-08-12T05:52:36.062Z,12.30
2018-08-12T05:55:40.252Z,12.50
2018-08-12T05:58:45.241Z,12.80
2018-08-12T06:01:49.577Z,12.90
2018-08-12T06:04:53.836Z,12.90
2018-08-12T06:07:58.082Z,12.80
2018-08-12T06:11:02.280Z,13.00
2018-08-12T06:14:07.624Z,13.30
2018-08-12T06:17:11.837Z,13.60
2018-08-12T06:20:16.264Z,13.60
2018-08-12T06:23:20.483Z,13.80
2018-08-12T06:26:24.828Z,13.70
2018-08-12T06:29:29.074Z,13.90
2018-08-12T06:32:33.317Z,14.10
2018-08-12T06:35:37.539Z,14.60
2018-08-12T06:38:41.941Z,16.60
2018-08-12T06:41:46.462Z,19.10
2018-08-12T06:44:50.830Z,20.80
2018-08-12T06:47:55.416Z,21.10
2018-08-12T06:50:59.824Z,22.70
2018-08-12T06:54:04.041Z,25.20
2018-08-12T06:57:08.226Z,26.40
2018-08-12T07:00:15.358Z,26.70
2018-08-12T07:03:19.565Z,27.60
2018-08-12T07:06:24.113Z,28.00
2018-08-12T07:09:28.576Z,28.10
2018-08-12T07:12:32.940Z,27.60
2018-08-12T07:15:37.354Z,27.00
2018-08-12T07:18:41.641Z,28.40
2018-08-12T07:21:45.855Z,28.90
2018-08-12T07:24:51.132Z,29.50
2018-08-12T07:27:55.498Z,29.00
2018-08-12T07:30:59.837Z,28.70
2018-08-12T07:34:04.178Z,28.00
2018-08-12T07:37:08.523Z,28.50
2018-08-12T07:40:21.281Z,29.20
2018-08-12T07:43:25.658Z,29.30
2018-08-12T07:46:29.818Z,29.00
2018-08-12T07:49:34.004Z,28.90
2018-08-12T07:52:38.515Z,29.50
2018-08-12T07:55:43.303Z,28.30
2018-08-12T07:58:47.431Z,28.90
2018-08-12T08:01:51.762Z,28.90
2018-08-12T08:04:55.985Z,28.20
2018-08-12T08:08:00.217Z,28.00
2018-08-12T08:11:04.457Z,28.30
2018-08-12T08:14:08.833Z,27.90
2018-08-12T08:17:13.081Z,27.30
2018-08-12T08:20:18.535Z,26.50
2018-08-12T08:23:22.744Z,27.00
2018-08-12T08:26:27.171Z,29.20
2018-08-12T08:29:31.759Z,30.10
2018-08-12T08:32:35.991Z,30.30
2018-08-12T08:35:40.293Z,29.30
2018-08-12T08:38:44.496Z,31.00
2018-08-12T08:41:49.132Z,31.20
2018-08-12T08:44:53.498Z,29.00
2018-08-12T08:47:57.698Z,29.40
2018-08-12T08:51:01.979Z,30.20
2018-08-12T08:54:06.150Z,31.30
2018-08-12T08:57:10.570Z,31.70
2018-08-12T09:00:17.039Z,31.90
2018-08-12T09:03:21.496Z,31.30
2018-08-12T09:06:25.883Z,32.40
2018-08-12T09:09:30.139Z,32.40
2018-08-12T09:12:34.390Z,33.20
2018-08-12T09:15:38.888Z,33.40
2018-08-12T09:18:43.129Z,33.00
2018-08-12T09:21:47.396Z,32.70
2018-08-12T09:24:52.005Z,32.90
2018-08-12T09:27:56.507Z,32.50
2018-08-12T09:31:00.912Z,31.60
2018-08-12T09:34:05.256Z,31.10
2018-08-12T09:37:09.848Z,31.90
2018-08-12T09:40:16.954Z,32.30
2018-08-12T09:43:21.356Z,32.80
2018-08-12T09:46:25.618Z,32.30
2018-08-12T09:49:30.357Z,31.60
2018-08-12T09:52:34.965Z,31.70
2018-08-12T09:55:39.265Z,32.00
2018-08-12T09:58:43.728Z,32.70
2018-08-12T10:01:48.113Z,33.10
2018-08-12T10:04:52.528Z,33.20
2018-08-12T10:07:56.765Z,32.90
2018-08-12T10:11:01.167Z,32.80
2018-08-12T10:14:05.401Z,32.50
2018-08-12T10:17:09.896Z,32.30
2018-08-12T10:20:14.310Z,32.70
2018-08-12T10:23:18.671Z,31.70
2018-08-12T10:26:23.050Z,31.80
2018-08-12T10:29:27.467Z,32.30
2018-08-12T10:32:31.865Z,32.20
2018-08-12T10:35:36.053Z,32.10
2018-08-12T10:38:40.526Z,32.10
2018-08-12T10:41:47.113Z,32.50
2018-08-12T10:44:51.656Z,32.50
2018-08-12T10:47:56.323Z,31.90
2018-08-12T10:51:00.717Z,32.40
2018-08-12T10:54:05.109Z,32.50
2018-08-12T10:57:09.733Z,32.40
2018-08-12T11:00:19.357Z,32.20
2018-08-12T11:03:23.662Z,31.60
2018-08-12T11:06:28.114Z,32.00
2018-08-12T11:09:32.549Z,32.20
2018-08-12T11:12:36.978Z,32.30
2018-08-12T11:15:41.432Z,31.90
2018-08-12T11:18:45.633Z,31.80
2018-08-12T11:21:51.403Z,32.30
2018-08-12T11:24:55.702Z,32.20
2018-08-12T11:28:00.215Z,31.30
2018-08-12T11:31:04.554Z,32.00
2018-08-12T11:34:09.831Z,32.20
2018-08-12T11:37:14.422Z,32.00
2018-08-12T11:40:18.847Z,31.90
2018-08-12T11:43:23.198Z,31.60
2018-08-12T11:46:27.469Z,31.10
2018-08-12T11:49:32.299Z,30.80
2018-08-12T11:52:36.615Z,30.50
2018-08-12T11:55:41.132Z,29.90
2018-08-12T11:58:46.599Z,29.80
2018-08-12T12:01:51.310Z,29.30
2018-08-12T12:04:56.026Z,28.90
2018-08-12T12:08:00.325Z,28.60
2018-08-12T12:11:04.551Z,28.60
2018-08-12T12:14:15.321Z,28.30
2018-08-12T12:17:19.816Z,27.60
2018-08-12T12:20:24.063Z,27.70
2018-08-12T12:23:28.878Z,27.80
2018-08-12T12:26:33.415Z,27.60
2018-08-12T12:29:37.811Z,27.50
2018-08-12T12:32:42.594Z,27.70
2018-08-12T12:35:47.278Z,27.50
2018-08-12T12:38:51.848Z,27.60
2018-08-12T12:41:56.093Z,27.70
2018-08-12T12:45:00.671Z,27.80
2018-08-12T12:48:06.328Z,27.80
2018-08-12T12:51:10.743Z,27.50
2018-08-12T12:54:15.002Z,27.40
2018-08-12T12:57:19.280Z,27.60
2018-08-12T13:00:23.805Z,27.50
2018-08-12T13:03:27.967Z,27.50
2018-08-12T13:06:32.255Z,27.50
2018-08-12T13:09:36.678Z,27.40
2018-08-12T13:12:41.722Z,27.60
2018-08-12T13:15:45.911Z,27.60
2018-08-12T13:18:50.437Z,27.50
2018-08-12T13:21:54.705Z,27.60
2018-08-12T13:24:58.889Z,27.40
2018-08-12T13:28:03.144Z,27.20
2018-08-12T13:31:07.511Z,27.20
2018-08-12T13:34:12.450Z,27.40
2018-08-12T13:37:16.625Z,27.50
2018-08-12T13:40:20.941Z,27.10
2018-08-12T13:43:25.235Z,26.80
2018-08-12T13:46:29.687Z,26.80
2018-08-12T13:49:34.655Z,27.10
2018-08-12T13:52:39.072Z,27.10
2018-08-12T13:55:43.318Z,27.20
2018-08-12T13:58:47.552Z,27.20
2018-08-12T14:01:51.962Z,27.30
2018-08-12T14:04:56.218Z,27.30
2018-08-12T14:08:00.538Z,27.10
2018-08-12T14:11:04.832Z,27.00
2018-08-12T14:14:09.637Z,27.10
2018-08-12T14:17:13.895Z,27.20
2018-08-12T14:20:20.044Z,27.10
2018-08-12T14:23:24.363Z,27.20
2018-08-12T14:26:28.593Z,27.20
2018-08-12T14:29:32.866Z,27.30
2018-08-12T14:32:37.172Z,27.30
2018-08-12T14:35:41.433Z,27.30
2018-08-12T14:38:45.764Z,27.20
2018-08-12T14:41:50.052Z,27.10
2018-08-12T14:44:55.026Z,27.20
2018-08-12T14:47:59.220Z,27.20
2018-08-12T14:51:03.484Z,27.30
2018-08-12T14:54:07.800Z,27.20
2018-08-12T14:57:12.039Z,27.20
2018-08-12T15:00:17.533Z,27.30
2018-08-12T15:03:21.719Z,27.30
2018-08-12T15:06:26.068Z,27.30
2018-08-12T15:09:30.222Z,27.30
2018-08-12T15:12:34.503Z,27.30
2018-08-12T15:15:38.743Z,27.40
2018-08-12T15:18:43.102Z,27.40
2018-08-12T15:21:47.726Z,27.40
2018-08-12T15:24:52.041Z,27.40
2018-08-12T15:27:56.281Z,27.50
2018-08-12T15:31:00.597Z,27.40
2018-08-12T15:34:04.912Z,27.50
2018-08-12T15:37:09.149Z,27.60
2018-08-12T15:40:14.934Z,27.50
2018-08-12T15:43:19.197Z,27.40
2018-08-12T15:46:23.791Z,27.40
2018-08-12T15:49:28.133Z,27.30
2018-08-12T15:52:32.384Z,27.20
2018-08-12T15:55:36.609Z,27.10
2018-08-12T15:58:40.843Z,27.10
2018-08-12T16:01:45.055Z,27.00
2018-08-12T16:04:49.401Z,27.00
2018-08-12T16:07:53.658Z,27.00
2018-08-12T16:10:58.594Z,27.00
2018-08-12T16:14:02.829Z,27.00
2018-08-12T16:17:07.507Z,26.90
2018-08-12T16:20:12.793Z,27.00
2018-08-12T16:23:16.929Z,27.10
2018-08-12T16:26:21.144Z,27.20
2018-08-12T16:29:25.529Z,27.10
2018-08-12T16:32:30.135Z,27.00
2018-08-12T16:35:34.410Z,26.90
2018-08-12T16:38:38.756Z,26.80
2018-08-12T16:41:42.921Z,26.70
2018-08-12T16:44:47.233Z,26.70
2018-08-12T16:47:51.665Z,26.60
2018-08-12T16:50:56.507Z,26.50
2018-08-12T16:54:01.016Z,26.40
2018-08-12T16:57:05.533Z,26.30
2018-08-12T17:00:13.933Z,26.30
2018-08-12T17:03:18.154Z,26.30
2018-08-12T17:06:22.406Z,26.30
2018-08-12T17:09:28.428Z,26.20
2018-08-12T17:12:32.678Z,26.20
2018-08-12T17:15:36.863Z,26.10
2018-08-12T17:18:41.178Z,26.10
2018-08-12T17:21:45.358Z,26.10
2018-08-12T17:24:49.720Z,26.00
2018-08-12T17:27:54.009Z,26.00
2018-08-12T17:30:58.424Z,25.90
2018-08-12T17:34:02.654Z,25.80
2018-08-12T17:37:06.995Z,25.70
2018-08-12T17:40:13.127Z,25.70
2018-08-12T17:43:17.629Z,25.70
2018-08-12T17:46:21.898Z,25.60
2018-08-12T17:49:26.997Z,25.40
2018-08-12T17:52:31.367Z,25.40
2018-08-12T17:55:35.677Z,25.30
2018-08-12T17:58:40.036Z,25.20
2018-08-12T18:01:44.278Z,25.10
2018-08-12T18:04:48.723Z,25.00
2018-08-12T18:07:53.178Z,24.90
2018-08-12T18:10:58.267Z,24.70
2018-08-12T18:14:02.579Z,24.50
2018-08-12T18:17:06.811Z,24.30
2018-08-12T18:20:15.338Z,24.20
2018-08-12T18:23:19.600Z,24.00
2018-08-12T18:26:23.795Z,23.80
2018-08-12T18:29:28.048Z,23.60
2018-08-12T18:32:32.424Z,23.40
2018-08-12T18:35:36.623Z,23.30
2018-08-12T18:38:40.875Z,23.20
2018-08-12T18:41:45.115Z,23.10
2018-08-12T18:44:49.367Z,22.90
2018-08-12T18:47:53.707Z,22.70
2018-08-12T18:50:58.193Z,22.60
2018-08-12T18:54:03.231Z,22.40
2018-08-12T18:57:07.463Z,22.20
2018-08-12T19:00:13.415Z,22.10
2018-08-12T19:03:17.611Z,22.00
2018-08-12T19:06:22.768Z,21.80
2018-08-12T19:09:27.346Z,21.60
2018-08-12T19:12:31.453Z,21.50
2018-08-12T19:15:35.632Z,21.40
2018-08-12T19:18:39.810Z,21.30
2018-08-12T19:21:43.972Z,21.20
2018-08-12T19:24:48.275Z,21.10
2018-08-12T19:27:52.915Z,21.00
2018-08-12T19:30:58.210Z,20.90
2018-08-12T19:34:02.381Z,20.80
2018-08-12T19:37:06.911Z,20.60
2018-08-12T19:40:11.124Z,20.50
2018-08-12T19:43:15.370Z,20.40
2018-08-12T19:46:19.607Z,20.30
2018-08-12T19:49:24.180Z,20.20
2018-08-12T19:52:28.548Z,20.20
2018-08-12T19:55:32.801Z,20.20
2018-08-12T19:58:37.053Z,20.10
2018-08-12T20:01:41.674Z,20.10
2018-08-12T20:04:45.834Z,20.10
2018-08-12T20:07:50.125Z,20.00
2018-08-12T20:10:54.293Z,19.90
2018-08-12T20:13:59.427Z,19.70
2018-08-12T20:17:03.753Z,19.60
2018-08-12T20:20:10.159Z,19.50
2018-08-12T20:23:14.387Z,19.40
2018-08-12T20:26:18.561Z,19.20
2018-08-12T20:29:22.728Z,19.10
2018-08-12T20:32:27.014Z,19.00
2018-08-12T20:35:31.138Z,19.10
2018-08-12T20:38:35.318Z,18.90
2018-08-12T20:41:39.470Z,18.90
2018-08-12T20:44:50.068Z,18.90
2018-08-12T20:47:54.984Z,18.80
2018-08-12T20:50:59.217Z,18.70
2018-08-12T20:54:03.435Z,18.60
2018-08-12T20:57:08.245Z,18.70
2018-08-12T21:00:12.512Z,18.70
2018-08-12T21:03:16.698Z,18.70
2018-08-12T21:06:21.000Z,18.60
2018-08-12T21:09:25.458Z,18.60
2018-08-12T21:12:30.785Z,18.40
2018-08-12T21:15:35.182Z,18.40
2018-08-12T21:18:39.497Z,18.30
2018-08-12T21:21:43.653Z,18.20
2018-08-12T21:24:48.833Z,18.20
2018-08-12T21:27:53.030Z,18.00
2018-08-12T21:30:57.343Z,17.90
2018-08-12T21:34:01.834Z,17.70
2018-08-12T21:37:05.995Z,17.60
2018-08-12T21:40:10.514Z,17.40
2018-08-12T21:43:14.646Z,17.30
2018-08-12T21:46:18.820Z,17.10
2018-08-12T21:49:23.776Z,17.10
2018-08-12T21:52:29.229Z,17.10
2018-08-12T21:55:33.386Z,17.00
2018-08-12T21:58:37.616Z,17.00
2018-08-12T22:01:50.457Z,17.10
2018-08-12T22:04:54.606Z,16.90
2018-08-12T22:08:02.860Z,16.70
2018-08-12T22:11:07.015Z,16.90
2018-08-12T22:14:11.200Z,17.00
2018-08-12T22:17:15.470Z,16.80
2018-08-12T22:20:19.709Z,16.60
2018-08-12T22:23:24.024Z,16.70
2018-08-12T22:26:28.157Z,16.70
2018-08-12T22:29:32.439Z,16.60
2018-08-12T22:32:36.694Z,16.50
2018-08-12T22:35:40.935Z,16.50
2018-08-12T22:38:45.114Z,16.20
2018-08-12T22:41:49.324Z,16.20
2018-08-12T22:44:53.516Z,16.20
2018-08-12T22:47:57.816Z,16.20
2018-08-12T22:51:02.159Z,16.20
2018-08-12T22:54:06.358Z,16.20
2018-08-12T22:57:10.557Z,16.10
2018-08-12T23:00:17.264Z,16.10
2018-08-12T23:03:21.457Z,16.00
2018-08-12T23:06:25.643Z,16.10
2018-08-12T23:09:30.432Z,15.90
2018-08-12T23:12:34.577Z,15.70
2018-08-12T23:16:18.943Z,15.60
2018-08-12T23:19:23.135Z,15.50
2018-08-12T23:22:27.279Z,15.50
2018-08-12T23:25:31.781Z,15.40
2018-08-12T23:28:35.957Z,15.20
2018-08-12T23:31:41.139Z,15.10
2018-08-12T23:34:45.268Z,15.10
2018-08-12T23:37:49.578Z,15.10
2018-08-12T23:40:53.706Z,15.00
2018-08-12T23:43:57.948Z,15.10
2018-08-12T23:47:02.108Z,15.10
2018-08-12T23:50:06.343Z,15.00
2018-08-12T23:53:10.487Z,15.00
2018-08-12T23:56:14.709Z,15.10
2018-08-12T23:59:18.863Z,14.90
